Time;durP1;ratioP1;P1;durP2;ratioP2;P2;SDS_P1;SDS_P2;PMS_P1;PMS_P2;Temp;Humidity;BMP_temperature;BMP_pressure;BME280_temperature;BME280_humidity;BME280_pressure;Samples;Min_cycle;Max_cycle;Signal;HPM_P1;HPM_P2
2021/12/15 00:00:32;;;;;;;34.83;17.55;;;10.20;93.10;;;;;;4962090;28;20170;-65
2021/12/15 00:02:58;;;;;;;37.72;18.95;;;10.20;93.00;;;;;;4963098;28;20046;-66
2021/12/15 00:05:26;;;;;;;35.35;18.90;;;10.20;93.00;;;;;;4965020;28;20524;-67
2021/12/15 00:07:56;;;;;;;32.40;16.85;;;10.10;93.00;;;;;;4969634;28;20109;-67
2021/12/15 00:10:24;;;;;;;39.78;18.80;;;10.20;93.00;;;;;;4966822;28;20031;-68
2021/12/15 00:12:50;;;;;;;32.65;16.60;;;10.20;93.10;;;;;;4966413;28;20035;-67
2021/12/15 00:15:18;;;;;;;40.13;18.55;;;10.20;93.10;;;;;;4966426;28;20035;-68
2021/12/15 00:17:44;;;;;;;38.00;19.67;;;10.20;93.00;;;;;;4965392;28;20058;-68
2021/12/15 00:20:14;;;;;;;36.35;17.08;;;10.20;93.00;;;;;;4970333;28;20030;-68
2021/12/15 00:22:40;;;;;;;42.22;18.77;;;10.10;93.10;;;;;;4969098;28;20491;-68
2021/12/15 00:25:10;;;;;;;35.55;18.33;;;10.10;93.10;;;;;;4970907;28;20228;-67
2021/12/15 00:27:36;;;;;;;37.75;17.83;;;10.10;93.00;;;;;;4968010;28;20050;-68
2021/12/15 00:30:07;;;;;;;31.13;17.17;;;10.10;93.10;;;;;;4964717;28;20395;-68
2021/12/15 00:32:34;;;;;;;40.85;18.65;;;10.10;93.30;;;;;;4971357;28;20530;-67
2021/12/15 00:35:00;;;;;;;36.50;18.23;;;10.10;93.30;;;;;;4971890;28;20026;-67
2021/12/15 00:37:26;;;;;;;36.95;16.98;;;10.10;93.20;;;;;;4969814;28;20035;-67
2021/12/15 00:39:53;;;;;;;38.50;17.77;;;10.10;93.30;;;;;;4969621;28;20031;-67
2021/12/15 00:42:20;;;;;;;40.35;18.40;;;10.10;93.30;;;;;;4970419;28;20038;-66
2021/12/15 00:44:46;;;;;;;31.23;16.23;;;10.10;93.30;;;;;;4965355;28;20027;-67
2021/12/15 00:47:12;;;;;;;36.72;18.33;;;10.10;93.30;;;;;;4968862;28;20914;-67
2021/12/15 00:49:39;;;;;;;32.33;16.92;;;10.10;93.40;;;;;;4969478;28;20034;-67
2021/12/15 00:52:06;;;;;;;39.95;18.40;;;10.20;93.40;;;;;;4975983;28;20464;-68
2021/12/15 00:54:33;;;;;;;38.90;18.55;;;10.20;93.30;;;;;;4967884;28;20525;-67
2021/12/15 00:56:59;;;;;;;36.85;17.27;;;10.20;93.20;;;;;;4967517;28;20034;-67
2021/12/15 00:59:26;;;;;;;40.10;18.02;;;10.20;93.20;;;;;;4964973;28;20034;-68
2021/12/15 01:01:53;;;;;;;39.95;18.92;;;10.20;93.30;;;;;;4969645;28;20037;-67
2021/12/15 01:04:22;;;;;;;37.83;18.50;;;10.20;93.00;;;;;;4971132;28;20487;-67
2021/12/15 01:06:53;;;;;;;42.40;18.20;;;10.20;93.10;;;;;;4970221;28;20058;-67
2021/12/15 01:09:25;;;;;;;40.03;18.30;;;10.20;93.20;;;;;;4961952;28;20034;-67
2021/12/15 01:12:10;;;;;;;41.38;18.70;;;10.20;93.20;;;;;;4970098;28;20035;-67
2021/12/15 01:20:21;;;;;;;;;;;10.20;93.30;;;;;;4967924;28;20062;-67
2021/12/15 01:22:50;;;;;;;42.13;17.88;;;10.20;93.20;;;;;;4970954;28;19914;-68
2021/12/15 01:25:43;;;;;;;35.90;16.65;;;10.20;93.30;;;;;;4963126;28;20863;-67
2021/12/15 01:28:10;;;;;;;35.47;16.38;;;10.20;93.30;;;;;;4970654;28;20041;-67
2021/12/15 01:30:39;;;;;;;32.97;15.85;;;10.20;93.30;;;;;;4976884;28;20117;-67
2021/12/15 01:33:06;;;;;;;34.28;16.50;;;10.20;93.30;;;;;;4961029;28;20168;-67
2021/12/15 01:35:35;;;;;;;33.33;17.42;;;10.20;93.30;;;;;;4967894;28;20027;-67
2021/12/15 01:38:01;;;;;;;37.08;17.73;;;10.20;93.20;;;;;;4966515;28;20057;-67
2021/12/15 01:40:36;;;;;;;38.03;17.85;;;10.20;93.20;;;;;;4964751;28;20546;-67
2021/12/15 01:43:19;;;;;;;40.22;18.08;;;10.20;93.10;;;;;;4973575;28;20026;-67
2021/12/15 01:48:34;;;;;;;34.97;16.95;;;10.20;92.90;;;;;;4964827;28;20130;-67
2021/12/15 01:51:00;;;;;;;34.60;17.08;;;10.20;93.00;;;;;;4968846;28;20081;-67
2021/12/15 01:53:26;;;;;;;35.17;15.80;;;10.20;93.10;;;;;;4947151;28;20041;-67
2021/12/15 01:55:54;;;;;;;35.83;16.42;;;10.20;93.00;;;;;;4962537;28;20047;-67
2021/12/15 01:58:19;;;;;;;35.63;16.50;;;10.20;93.00;;;;;;4974575;28;20463;-66
2021/12/15 02:00:51;;;;;;;35.58;16.67;;;10.20;92.90;;;;;;4973383;28;20037;-67
2021/12/15 02:03:17;;;;;;;33.63;15.77;;;10.10;93.00;;;;;;4966426;28;20092;-68
2021/12/15 02:05:43;;;;;;;35.33;16.63;;;10.10;92.90;;;;;;4968293;28;20041;-68
2021/12/15 02:08:12;;;;;;;36.28;16.95;;;10.10;93.00;;;;;;4960070;28;20035;-68
2021/12/15 02:10:40;;;;;;;34.92;15.63;;;10.10;93.10;;;;;;4958817;28;20089;-68
2021/12/15 02:13:09;;;;;;;35.17;16.67;;;10.00;92.90;;;;;;4972967;28;20505;-68
2021/12/15 02:15:38;;;;;;;35.50;15.77;;;10.00;93.10;;;;;;4974443;28;20069;-68
2021/12/15 02:18:07;;;;;;;27.63;13.82;;;10.00;93.20;;;;;;4964732;28;20037;-68
2021/12/15 02:20:38;;;;;;;33.60;15.20;;;10.00;93.30;;;;;;4947972;28;20045;-69
2021/12/15 02:23:07;;;;;;;29.00;14.35;;;10.00;93.30;;;;;;4942942;28;20027;-68
2021/12/15 02:25:33;;;;;;;29.40;14.43;;;10.10;93.30;;;;;;4978050;28;20054;-68
2021/12/15 02:28:02;;;;;;;31.40;14.68;;;10.10;93.30;;;;;;4982216;28;20046;-68
2021/12/15 02:38:35;;;;;;;28.85;13.52;;;10.10;93.20;;;;;;4960103;28;20035;-67
2021/12/15 02:41:09;;;;;;;24.60;12.90;;;10.10;93.20;;;;;;4960538;28;20054;-67
2021/12/15 02:43:35;;;;;;;25.05;12.32;;;10.10;93.20;;;;;;4957942;28;20035;-67
2021/12/15 02:46:02;;;;;;;26.05;12.90;;;10.10;93.20;;;;;;4968624;28;20019;-67
2021/12/15 02:48:28;;;;;;;22.10;12.05;;;10.20;93.20;;;;;;4963704;28;20589;-67
2021/12/15 02:50:54;;;;;;;29.77;14.55;;;10.20;93.20;;;;;;4963814;28;20039;-67
2021/12/15 02:53:20;;;;;;;24.80;13.13;;;10.20;93.10;;;;;;4965829;28;20109;-68
2021/12/15 02:55:46;;;;;;;25.15;12.93;;;10.20;93.10;;;;;;4969842;28;20515;-68
2021/12/15 02:58:13;;;;;;;30.38;14.15;;;10.10;93.10;;;;;;4966961;28;20044;-68
2021/12/15 03:00:55;;;;;;;25.88;12.73;;;10.10;93.10;;;;;;4965871;28;20448;-68
2021/12/15 03:04:28;;;;;;;25.40;12.57;;;10.20;93.10;;;;;;4960997;28;20049;-67
2021/12/15 03:06:35;;;;;;;22.57;11.70;;;10.20;93.00;;;;;;4957174;28;20101;-68
2021/12/15 03:17:03;;;;;;;24.65;12.88;;;10.20;93.10;;;;;;4965615;28;20042;-67
2021/12/15 03:19:28;;;;;;;23.95;12.20;;;10.10;93.00;;;;;;4963063;28;20425;-67
2021/12/15 03:21:54;;;;;;;23.65;11.93;;;10.20;93.00;;;;;;4949875;28;20039;-67
2021/12/15 03:24:24;;;;;;;23.95;11.32;;;10.10;93.00;;;;;;4968426;28;20423;-67
2021/12/15 03:27:03;;;;;;;26.20;12.75;;;10.10;93.10;;;;;;4966544;28;20038;-66
2021/12/15 03:37:57;;;;;;;26.20;11.98;;;10.20;92.60;;;;;;4944732;28;20046;-66
2021/12/15 03:40:25;;;;;;;29.20;14.63;;;10.10;92.90;;;;;;4966530;28;20042;-66
2021/12/15 03:42:58;;;;;;;30.00;13.75;;;10.10;92.80;;;;;;4966195;28;20030;-66
2021/12/15 03:45:33;;;;;;;27.67;13.40;;;10.00;92.90;;;;;;4963333;28;20042;-66
2021/12/15 03:48:03;;;;;;;27.90;13.18;;;10.00;93.10;;;;;;4964214;28;20824;-67
2021/12/15 03:50:29;;;;;;;24.40;11.85;;;9.90;93.30;;;;;;4974842;28;20903;-67
2021/12/15 03:52:56;;;;;;;26.20;13.05;;;9.90;93.40;;;;;;4973108;28;20039;-66
2021/12/15 03:55:29;;;;;;;25.08;13.18;;;9.90;93.40;;;;;;4968893;28;20039;-67
2021/12/15 03:57:57;;;;;;;24.63;12.75;;;9.90;93.20;;;;;;4968861;28;20050;-67
2021/12/15 04:00:24;;;;;;;26.67;13.73;;;10.00;93.20;;;;;;4967012;28;20054;-67
2021/12/15 04:02:51;;;;;;;21.42;10.85;;;10.00;93.20;;;;;;4967384;28;20058;-67
2021/12/15 04:05:21;;;;;;;21.98;11.40;;;10.00;93.20;;;;;;4972970;28;20025;-68
2021/12/15 04:07:49;;;;;;;23.25;11.85;;;10.00;93.20;;;;;;4971932;28;20023;-68
2021/12/15 04:10:18;;;;;;;25.08;11.55;;;10.00;93.20;;;;;;4969169;28;20292;-68
2021/12/15 04:12:45;;;;;;;28.67;14.00;;;10.00;92.90;;;;;;4967705;28;20114;-68
2021/12/15 04:15:27;;;;;;;26.52;12.90;;;10.10;92.90;;;;;;4962085;28;20586;-68
2021/12/15 04:17:59;;;;;;;26.25;12.68;;;10.00;92.90;;;;;;4964500;28;20031;-68
2021/12/15 04:20:29;;;;;;;28.13;13.73;;;9.90;93.10;;;;;;4962662;28;20042;-68
2021/12/15 04:22:55;;;;;;;24.83;11.93;;;9.90;93.20;;;;;;4968938;28;20383;-68
2021/12/15 04:25:31;;;;;;;30.77;14.07;;;9.90;93.20;;;;;;4969515;28;20031;-68
2021/12/15 04:28:02;;;;;;;27.05;13.05;;;10.00;93.20;;;;;;4963999;28;20039;-68
2021/12/15 04:30:31;;;;;;;30.98;13.77;;;10.00;93.10;;;;;;4963550;28;20053;-68
2021/12/15 04:33:03;;;;;;;29.85;13.70;;;9.90;93.20;;;;;;4968757;28;20446;-68
2021/12/15 04:35:29;;;;;;;26.15;12.60;;;9.90;93.20;;;;;;4959735;28;20078;-68
2021/12/15 04:37:55;;;;;;;27.52;12.45;;;9.80;93.30;;;;;;4963496;28;20133;-68
2021/12/15 04:40:22;;;;;;;36.25;14.23;;;9.80;93.50;;;;;;4966402;28;20125;-68
2021/12/15 04:42:49;;;;;;;24.15;12.70;;;9.80;93.40;;;;;;4969955;28;20043;-68
2021/12/15 04:45:18;;;;;;;23.63;12.77;;;9.80;93.40;;;;;;4973180;28;20453;-68
2021/12/15 04:47:44;;;;;;;30.67;12.77;;;9.90;93.40;;;;;;4972443;28;20033;-68
2021/12/15 04:50:12;;;;;;;22.80;12.25;;;9.90;93.30;;;;;;4971038;28;20034;-68
2021/12/15 04:52:38;;;;;;;22.70;11.73;;;9.80;93.30;;;;;;4968907;28;20519;-68
2021/12/15 04:55:06;;;;;;;24.40;11.35;;;9.80;93.40;;;;;;4968078;28;20050;-68
2021/12/15 04:57:34;;;;;;;24.67;12.98;;;9.80;93.60;;;;;;4965733;28;20037;-68
2021/12/15 05:00:00;;;;;;;20.85;11.48;;;9.90;93.60;;;;;;4968155;28;20034;-68
2021/12/15 05:02:26;;;;;;;22.30;10.65;;;9.90;93.60;;;;;;4970902;28;20034;-69
2021/12/15 05:04:52;;;;;;;22.90;11.43;;;9.90;93.50;;;;;;4970700;28;20026;-68
2021/12/15 05:07:19;;;;;;;22.75;10.65;;;10.00;93.50;;;;;;4964032;28;20075;-68
2021/12/15 05:09:49;;;;;;;21.08;11.32;;;10.00;93.50;;;;;;4967271;28;20038;-68
2021/12/15 05:12:17;;;;;;;19.70;10.20;;;10.00;93.50;;;;;;4964448;28;20035;-68
2021/12/15 05:14:43;;;;;;;19.55;10.30;;;10.10;93.40;;;;;;4970641;28;20038;-68
2021/12/15 05:17:09;;;;;;;21.15;10.77;;;10.10;93.30;;;;;;4970911;28;21031;-68
2021/12/15 05:19:35;;;;;;;23.33;11.10;;;10.10;93.30;;;;;;4967159;28;20039;-68
2021/12/15 05:22:04;;;;;;;19.55;9.95;;;10.10;93.30;;;;;;4966987;28;20070;-68
2021/12/15 05:24:30;;;;;;;22.00;10.88;;;10.10;93.30;;;;;;4964018;28;20038;-68
2021/12/15 05:27:02;;;;;;;21.75;10.98;;;10.10;93.20;;;;;;4965067;28;20034;-68
2021/12/15 05:29:28;;;;;;;22.90;11.52;;;10.10;93.20;;;;;;4968680;28;20053;-68
2021/12/15 05:31:55;;;;;;;18.98;10.57;;;10.20;93.20;;;;;;4970654;28;20026;-68
2021/12/15 05:34:22;;;;;;;23.02;10.65;;;10.20;93.10;;;;;;4961365;28;20045;-68
2021/12/15 05:36:51;;;;;;;17.45;10.35;;;10.20;92.90;;;;;;4966469;28;20034;-68
2021/12/15 05:39:17;;;;;;;26.23;12.70;;;10.20;92.90;;;;;;4963889;28;20122;-69
2021/12/15 05:41:43;;;;;;;28.08;12.55;;;10.20;92.90;;;;;;4966446;28;20798;-68
2021/12/15 05:44:09;;;;;;;23.13;11.73;;;10.20;92.60;;;;;;4971216;28;20031;-68
2021/12/15 05:46:35;;;;;;;24.02;12.23;;;10.20;92.70;;;;;;4967350;28;20076;-68
2021/12/15 05:49:02;;;;;;;25.70;12.30;;;10.10;92.90;;;;;;4967474;28;20034;-68
2021/12/15 05:51:28;;;;;;;24.17;11.65;;;10.10;92.90;;;;;;4964612;28;20093;-68
2021/12/15 05:53:54;;;;;;;18.58;10.25;;;10.10;92.90;;;;;;4963602;28;20045;-68
2021/12/15 05:56:20;;;;;;;18.20;10.23;;;10.10;93.00;;;;;;4969530;28;20398;-68
2021/12/15 05:58:47;;;;;;;19.45;10.48;;;10.10;93.10;;;;;;4969782;28;20038;-68
2021/12/15 06:01:14;;;;;;;21.88;11.50;;;10.10;93.10;;;;;;4967864;28;20145;-67
2021/12/15 06:03:39;;;;;;;18.98;9.73;;;10.10;93.10;;;;;;4964335;28;20027;-67
2021/12/15 06:06:06;;;;;;;21.88;11.32;;;10.10;93.10;;;;;;4962789;28;20029;-68
2021/12/15 06:08:31;;;;;;;19.95;11.30;;;10.10;93.10;;;;;;4963128;28;20042;-67
2021/12/15 06:10:58;;;;;;;21.98;11.52;;;10.20;93.10;;;;;;4970570;28;20046;-68
2021/12/15 06:13:26;;;;;;;23.70;11.30;;;10.20;93.10;;;;;;4968094;28;20045;-68
2021/12/15 06:15:55;;;;;;;22.35;11.35;;;10.20;92.80;;;;;;4968430;28;20046;-67
2021/12/15 06:18:22;;;;;;;21.25;10.88;;;10.10;93.10;;;;;;4964977;28;20031;-67
2021/12/15 06:20:50;;;;;;;19.33;9.82;;;10.10;93.10;;;;;;4964583;28;20031;-68
2021/12/15 06:23:19;;;;;;;17.08;10.05;;;10.10;93.00;;;;;;4966326;28;20043;-67
2021/12/15 06:25:48;;;;;;;22.40;12.07;;;10.10;93.10;;;;;;4969718;28;20106;-67
2021/12/15 06:28:14;;;;;;;21.02;11.27;;;10.10;93.10;;;;;;4969029;28;20038;-67
2021/12/15 06:30:41;;;;;;;20.67;10.40;;;10.10;92.90;;;;;;4966383;28;20038;-67
2021/12/15 06:33:08;;;;;;;19.48;10.35;;;10.10;93.00;;;;;;4964405;28;20038;-67
2021/12/15 06:35:35;;;;;;;20.38;9.85;;;10.00;93.00;;;;;;4963333;28;20035;-68
2021/12/15 06:38:02;;;;;;;19.63;10.20;;;10.10;93.00;;;;;;4969330;28;20037;-68
2021/12/15 06:40:28;;;;;;;19.65;9.88;;;10.10;93.10;;;;;;4972139;28;20136;-68
2021/12/15 06:42:54;;;;;;;13.63;8.73;;;10.10;93.10;;;;;;4969403;28;20495;-68
2021/12/15 06:45:24;;;;;;;15.23;8.60;;;10.00;93.00;;;;;;4965369;28;20033;-67
2021/12/15 06:58:32;;;;;;;17.20;9.10;;;10.00;93.10;;;;;;4963797;28;20035;-68
2021/12/15 07:01:01;;;;;;;23.25;11.25;;;10.10;93.20;;;;;;4964286;28;20046;-68
2021/12/15 07:03:27;;;;;;;21.73;11.68;;;10.10;93.10;;;;;;4961201;28;20037;-68
2021/12/15 07:05:55;;;;;;;18.08;9.63;;;10.10;93.10;;;;;;4968057;28;20034;-68
2021/12/15 07:08:22;;;;;;;20.02;11.02;;;10.10;93.10;;;;;;4969624;28;20503;-68
2021/12/15 07:10:51;;;;;;;19.83;10.75;;;10.10;93.10;;;;;;4967909;28;20121;-68
2021/12/15 07:13:17;;;;;;;18.98;8.75;;;10.10;93.20;;;;;;4964384;28;20053;-68
2021/12/15 07:15:45;;;;;;;14.98;8.45;;;10.10;93.50;;;;;;4964804;28;20062;-68
2021/12/15 07:18:14;;;;;;;20.90;11.90;;;10.10;93.20;;;;;;4961063;28;20577;-68
2021/12/15 07:20:48;;;;;;;22.13;12.00;;;10.10;93.20;;;;;;4968049;28;20758;-68
2021/12/15 07:23:18;;;;;;;18.42;10.57;;;10.20;93.10;;;;;;4966677;28;20676;-68
2021/12/15 07:25:46;;;;;;;22.27;11.18;;;10.20;93.10;;;;;;4965997;28;20137;-68
2021/12/15 07:28:14;;;;;;;18.10;10.05;;;10.20;93.00;;;;;;4963864;28;20039;-68
2021/12/15 07:30:41;;;;;;;18.83;10.10;;;10.20;92.90;;;;;;4962523;28;20038;-68
2021/12/15 07:33:12;;;;;;;23.73;14.27;;;10.20;92.90;;;;;;4960117;28;20099;-67
2021/12/15 07:35:38;;;;;;;16.45;10.73;;;10.20;92.80;;;;;;4967806;28;20035;-68
2021/12/15 07:38:06;;;;;;;17.23;9.60;;;10.10;92.90;;;;;;4962996;28;20088;-68
2021/12/15 07:40:33;;;;;;;37.17;25.88;;;10.00;93.10;;;;;;4964172;28;20030;-68
2021/12/15 07:43:11;;;;;;;35.20;23.95;;;10.00;93.20;;;;;;4963677;28;20473;-68
2021/12/15 07:45:51;;;;;;;29.13;18.15;;;10.10;93.20;;;;;;4961575;28;20054;-68
2021/12/15 07:48:20;;;;;;;20.38;12.30;;;10.10;93.20;;;;;;4967182;28;20062;-68
2021/12/15 07:50:50;;;;;;;23.63;11.40;;;10.10;93.20;;;;;;4967631;28;20046;-69
2021/12/15 07:53:18;;;;;;;16.73;10.13;;;10.10;93.10;;;;;;4966249;28;20585;-68
2021/12/15 07:55:45;;;;;;;14.70;9.27;;;10.10;93.20;;;;;;4962841;28;20041;-68
2021/12/15 07:58:12;;;;;;;17.85;10.23;;;10.20;93.20;;;;;;4962268;28;20035;-68
2021/12/15 08:00:41;;;;;;;17.20;9.63;;;10.20;93.10;;;;;;4957977;28;20031;-69
2021/12/15 08:03:07;;;;;;;19.00;11.73;;;10.20;93.00;;;;;;4963286;28;20026;-68
2021/12/15 08:05:36;;;;;;;17.05;10.13;;;10.20;93.00;;;;;;4966360;28;20660;-68
2021/12/15 08:08:02;;;;;;;18.75;9.75;;;10.20;92.90;;;;;;4967006;28;20027;-68
2021/12/15 08:10:28;;;;;;;21.30;11.85;;;10.30;92.90;;;;;;4963420;28;20031;-68
2021/12/15 08:12:54;;;;;;;25.35;12.32;;;10.30;92.90;;;;;;4962865;28;20387;-68
2021/12/15 08:15:20;;;;;;;19.63;10.68;;;10.20;92.70;;;;;;4964194;28;20548;-68
2021/12/15 08:17:51;;;;;;;32.90;16.45;;;10.20;93.00;;;;;;4968095;28;20043;-68
2021/12/15 08:20:19;;;;;;;25.08;11.75;;;10.20;93.10;;;;;;4966608;28;20031;-69
2021/12/15 08:22:45;;;;;;;23.63;11.95;;;10.20;93.10;;;;;;4965734;28;20031;-68
2021/12/15 08:25:13;;;;;;;22.80;11.88;;;10.20;93.20;;;;;;4962918;28;20035;-67
2021/12/15 08:27:40;;;;;;;25.48;13.15;;;10.30;93.20;;;;;;4961796;28;20035;-67
2021/12/15 08:30:11;;;;;;;22.83;12.43;;;10.30;93.30;;;;;;4971500;28;20581;-67
2021/12/15 08:32:38;;;;;;;17.77;10.25;;;10.40;93.30;;;;;;4971985;28;20031;-68
2021/12/15 08:35:05;;;;;;;13.90;8.52;;;10.40;93.30;;;;;;4972188;28;20034;-67
2021/12/15 08:37:32;;;;;;;14.57;9.10;;;10.50;93.30;;;;;;4968365;28;21014;-67
2021/12/15 08:39:58;;;;;;;13.90;8.50;;;10.50;93.20;;;;;;4966339;28;20084;-67
2021/12/15 08:42:24;;;;;;;19.25;9.95;;;10.60;93.10;;;;;;4964569;28;20427;-67
2021/12/15 08:44:51;;;;;;;18.52;9.90;;;10.60;92.80;;;;;;4972010;28;20087;-69
2021/12/15 08:47:17;;;;;;;16.60;9.05;;;10.70;92.90;;;;;;4967779;28;20405;-69
2021/12/15 08:49:43;;;;;;;37.67;16.58;;;10.70;92.60;;;;;;4968194;28;20033;-69
2021/12/15 08:52:09;;;;;;;23.10;10.85;;;10.70;92.50;;;;;;4967433;28;20039;-68
2021/12/15 08:54:35;;;;;;;15.75;9.38;;;10.70;92.50;;;;;;4965002;28;20488;-68
2021/12/15 08:57:01;;;;;;;18.92;9.05;;;10.70;92.60;;;;;;4966791;28;20037;-69
2021/12/15 08:59:28;;;;;;;14.85;7.57;;;10.80;92.40;;;;;;4974016;28;20054;-67
2021/12/15 09:01:55;;;;;;;15.00;8.35;;;10.80;92.40;;;;;;4971812;28;20692;-68
2021/12/15 09:04:21;;;;;;;13.75;8.32;;;10.80;92.50;;;;;;4964386;28;20077;-67
2021/12/15 09:06:47;;;;;;;26.50;12.10;;;10.80;92.50;;;;;;4968163;28;20046;-68
2021/12/15 09:09:16;;;;;;;24.38;12.07;;;10.90;92.30;;;;;;4965218;28;20038;-69
2021/12/15 09:11:43;;;;;;;28.63;12.70;;;10.90;92.30;;;;;;4969158;28;20697;-68
2021/12/15 09:14:13;;;;;;;17.65;10.13;;;10.90;92.30;;;;;;4971441;28;20046;-67
2021/12/15 09:16:42;;;;;;;23.92;11.63;;;11.00;92.30;;;;;;4969244;28;20097;-67
2021/12/15 09:19:08;;;;;;;24.38;11.57;;;11.00;92.20;;;;;;4969387;28;20141;-67
2021/12/15 09:24:01;;;;;;;19.08;10.90;;;11.10;92.20;;;;;;4950239;28;20094;-66
2021/12/15 09:26:28;;;;;;;16.83;9.90;;;11.10;92.10;;;;;;4944877;28;20147;-66
2021/12/15 09:28:54;;;;;;;28.42;13.25;;;11.10;92.00;;;;;;4959749;28;20054;-66
2021/12/15 09:31:20;;;;;;;21.33;11.73;;;11.10;92.10;;;;;;4944864;28;20039;-67
2021/12/15 09:33:49;;;;;;;21.55;11.05;;;11.10;92.00;;;;;;4946758;28;20028;-67
2021/12/15 09:36:18;;;;;;;23.48;11.90;;;11.10;92.00;;;;;;4944599;28;20035;-67
2021/12/15 09:38:47;;;;;;;21.50;12.32;;;11.10;92.00;;;;;;4943041;28;20043;-68
2021/12/15 09:41:16;;;;;;;18.50;10.90;;;11.10;92.00;;;;;;4952537;28;20103;-67
2021/12/15 09:43:43;;;;;;;15.70;10.02;;;11.10;92.10;;;;;;4964277;28;20023;-66
2021/12/15 09:46:29;;;;;;;15.55;8.90;;;11.20;92.20;;;;;;4946730;28;20074;-64
2021/12/15 09:57:46;;;;;;;17.10;10.95;;;11.40;91.70;;;;;;4952378;28;20037;-67
2021/12/15 10:03:03;;;;;;;15.48;8.50;;;11.40;91.40;;;;;;4949475;28;20050;-67
2021/12/15 10:19:29;;;;;;;12.48;7.43;;;11.50;91.30;;;;;;4952494;28;20202;-68
2021/12/15 10:22:17;;;;;;;12.50;6.78;;;11.60;91.40;;;;;;4972884;28;20136;-70
2021/12/15 10:25:00;;;;;;;11.18;6.93;;;11.60;91.30;;;;;;4947829;28;20178;-70
2021/12/15 10:27:32;;;;;;;9.80;7.22;;;11.60;91.30;;;;;;4951327;28;20122;-70
2021/12/15 10:30:10;;;;;;;11.07;7.20;;;11.60;91.40;;;;;;4950502;28;20078;-69
2021/12/15 10:32:38;;;;;;;12.35;7.68;;;11.50;91.30;;;;;;4957358;28;20037;-69
2021/12/15 10:35:07;;;;;;;17.00;9.07;;;11.50;91.30;;;;;;4954719;28;20034;-69
2021/12/15 10:37:33;;;;;;;16.58;9.27;;;11.50;91.40;;;;;;4957203;28;20034;-70
2021/12/15 10:40:17;;;;;;;35.55;29.70;;;11.50;91.40;;;;;;4957461;28;20483;-69
2021/12/15 10:42:44;;;;;;;28.63;24.63;;;11.50;91.30;;;;;;4966846;28;20160;-68
2021/12/15 10:45:13;;;;;;;15.48;11.05;;;11.50;91.50;;;;;;4953340;28;20522;-68
2021/12/15 10:47:45;;;;;;;18.83;13.95;;;11.50;91.40;;;;;;4957652;28;20100;-69
2021/12/15 10:50:15;;;;;;;13.70;10.38;;;11.60;91.30;;;;;;4958029;28;20105;-68
2021/12/15 10:52:58;;;;;;;11.52;8.07;;;11.60;91.40;;;;;;4953593;28;20054;-66
2021/12/15 10:55:38;;;;;;;17.33;10.18;;;11.70;91.50;;;;;;4977725;28;20074;-69
2021/12/15 10:58:35;;;;;;;12.00;8.05;;;11.80;91.30;;;;;;4948347;28;20039;-69
2021/12/15 11:01:05;;;;;;;11.23;6.90;;;11.90;91.30;;;;;;4952475;28;20077;-69
2021/12/15 11:03:37;;;;;;;13.43;7.40;;;12.00;91.00;;;;;;4956555;28;20023;-69
2021/12/15 11:06:19;;;;;;;21.08;14.68;;;12.10;90.70;;;;;;4957696;28;20027;-69
2021/12/15 11:08:46;;;;;;;17.92;11.70;;;12.10;90.70;;;;;;4970595;28;20093;-69
2021/12/15 11:11:27;;;;;;;16.25;11.18;;;12.20;90.60;;;;;;4956393;28;20042;-69
2021/12/15 11:13:53;;;;;;;10.88;7.82;;;12.20;90.60;;;;;;4951273;28;20444;-71
2021/12/15 11:16:30;;;;;;;10.70;7.15;;;12.20;90.30;;;;;;4971078;28;20101;-68
2021/12/15 11:18:58;;;;;;;8.25;5.85;;;12.30;90.60;;;;;;4955634;28;20910;-69
2021/12/15 11:21:31;;;;;;;10.60;7.40;;;12.30;90.50;;;;;;4954592;28;20049;-67
2021/12/15 11:23:57;;;;;;;10.30;6.78;;;12.40;90.50;;;;;;4948930;28;20039;-67
2021/12/15 11:26:23;;;;;;;14.32;8.55;;;12.40;90.40;;;;;;4957783;28;20113;-68
2021/12/15 11:28:51;;;;;;;13.43;8.27;;;12.60;89.80;;;;;;4966157;28;20935;-70
2021/12/15 11:31:27;;;;;;;10.75;7.10;;;12.60;89.90;;;;;;4941089;28;20730;-69
2021/12/15 11:33:59;;;;;;;11.50;6.65;;;12.60;90.00;;;;;;4954485;28;20050;-70
2021/12/15 11:36:44;;;;;;;11.50;7.10;;;12.60;89.10;;;;;;4951452;28;20110;-69
2021/12/15 11:39:16;;;;;;;10.48;6.80;;;12.60;89.40;;;;;;4958820;28;20026;-66
2021/12/15 11:41:45;;;;;;;11.35;6.72;;;12.60;89.20;;;;;;4953399;28;20746;-69
2021/12/15 11:44:13;;;;;;;10.05;6.57;;;12.60;89.50;;;;;;4954584;28;20122;-69
2021/12/15 11:46:58;;;;;;;9.60;6.50;;;12.50;89.40;;;;;;4959280;28;20093;-69
2021/12/15 11:49:29;;;;;;;10.60;7.20;;;12.50;89.80;;;;;;4951288;28;20502;-68
2021/12/15 11:52:04;;;;;;;8.65;6.18;;;12.50;90.00;;;;;;4956782;28;20098;-68
2021/12/15 11:54:37;;;;;;;9.88;6.78;;;12.50;89.80;;;;;;4948438;28;20039;-72
2021/12/15 11:57:07;;;;;;;8.70;6.25;;;12.50;89.80;;;;;;4967736;28;20035;-70
2021/12/15 11:59:35;;;;;;;10.68;6.05;;;12.50;89.80;;;;;;4953040;28;20508;-71
2021/12/15 12:02:19;;;;;;;11.88;6.75;;;12.50;89.90;;;;;;4951557;28;20034;-70
2021/12/15 12:04:47;;;;;;;10.18;6.65;;;12.50;89.30;;;;;;4947505;28;20036;-71
2021/12/15 12:07:19;;;;;;;12.82;7.97;;;12.50;89.70;;;;;;4957836;28;20531;-71
2021/12/15 12:09:52;;;;;;;13.90;8.85;;;12.50;89.80;;;;;;4959510;28;20045;-71
2021/12/15 12:12:20;;;;;;;12.43;8.15;;;12.40;90.00;;;;;;4960201;28;20395;-69
2021/12/15 12:14:49;;;;;;;11.25;7.28;;;12.50;89.80;;;;;;4960922;28;20034;-69
2021/12/15 12:17:23;;;;;;;11.75;6.90;;;12.50;90.10;;;;;;4956039;28;20031;-68
2021/12/15 12:19:55;;;;;;;11.65;6.50;;;12.50;90.10;;;;;;4973579;28;20042;-68
2021/12/15 12:22:25;;;;;;;10.90;7.28;;;12.50;89.80;;;;;;4972694;28;20041;-68
2021/12/15 12:24:54;;;;;;;10.15;7.03;;;12.40;89.80;;;;;;4961481;28;20173;-68
2021/12/15 12:27:25;;;;;;;9.80;6.40;;;12.40;90.10;;;;;;4984247;28;20046;-68
2021/12/15 12:29:56;;;;;;;14.02;7.45;;;12.40;90.20;;;;;;4956532;28;20035;-68
2021/12/15 12:32:22;;;;;;;10.48;7.20;;;12.40;90.10;;;;;;4956296;28;20121;-67
2021/12/15 12:34:50;;;;;;;10.20;6.30;;;12.40;90.00;;;;;;4953653;28;20049;-67
2021/12/15 12:37:18;;;;;;;10.20;6.43;;;12.50;90.20;;;;;;4954415;28;20619;-67
2021/12/15 12:39:48;;;;;;;11.02;7.05;;;12.50;90.20;;;;;;4953358;28;20042;-68
2021/12/15 12:42:35;;;;;;;8.35;5.97;;;12.50;90.20;;;;;;4960136;28;20471;-67
2021/12/15 12:45:16;;;;;;;10.50;6.50;;;12.40;90.20;;;;;;4959600;28;20058;-66
2021/12/15 12:48:01;;;;;;;10.52;6.00;;;12.40;90.20;;;;;;4953693;28;20027;-67
2021/12/15 12:51:03;;;;;;;12.30;6.80;;;12.40;90.20;;;;;;4957482;28;20031;-68
2021/12/15 12:59:49;;;;;;;11.90;6.97;;;12.40;90.20;;;;;;4958228;28;20031;-69
2021/12/15 13:02:26;;;;;;;10.82;6.97;;;12.30;90.20;;;;;;4953190;28;20094;-68
2021/12/15 13:04:52;;;;;;;10.55;7.13;;;12.30;90.20;;;;;;4953855;28;20042;-69
2021/12/15 13:07:48;;;;;;;11.95;6.55;;;12.20;90.30;;;;;;4955413;28;20035;-68
2021/12/15 13:10:18;;;;;;;11.85;6.95;;;12.20;90.40;;;;;;4974095;28;20222;-69
2021/12/15 13:13:21;;;;;;;11.98;6.55;;;12.20;90.50;;;;;;4956660;28;20162;-71
2021/12/15 13:16:16;;;;;;;12.15;7.40;;;12.20;90.50;;;;;;4959641;28;20069;-69
2021/12/15 13:18:55;;;;;;;;;;;12.20;90.50;;;;;;4971036;28;20181;-69
2021/12/15 13:21:46;;;;;;;8.82;6.18;;;12.20;90.50;;;;;;4961765;28;19921;-69
2021/12/15 13:31:27;;;;;;;11.25;7.00;;;12.10;90.60;;;;;;4957410;28;20035;-69
2021/12/15 13:34:32;;;;;;;11.98;6.95;;;12.10;90.60;;;;;;4949237;28;20043;-68
2021/12/15 13:37:01;;;;;;;8.30;5.97;;;12.10;90.60;;;;;;4959102;28;20035;-68
2021/12/15 13:39:45;;;;;;;13.90;8.30;;;12.00;90.80;;;;;;4962754;28;20535;-68
2021/12/15 13:43:01;;;;;;;13.98;10.43;;;12.00;90.50;;;;;;4955998;28;20039;-69
2021/12/15 13:45:33;;;;;;;9.73;6.80;;;11.90;90.70;;;;;;4969010;28;20034;-70
2021/12/15 13:48:06;;;;;;;10.00;7.38;;;11.80;91.00;;;;;;4954819;28;20026;-68
2021/12/15 13:50:47;;;;;;;10.40;7.95;;;11.70;91.30;;;;;;4967814;28;20038;-68
2021/12/15 13:53:33;;;;;;;13.02;9.07;;;11.70;91.30;;;;;;4956039;28;20646;-68
2021/12/15 13:56:04;;;;;;;12.07;7.45;;;11.80;91.00;;;;;;4968098;28;20124;-67
2021/12/15 13:58:31;;;;;;;10.35;7.18;;;11.70;91.10;;;;;;4939888;28;20045;-67
2021/12/15 14:01:03;;;;;;;11.75;7.43;;;11.70;91.30;;;;;;4959853;28;20127;-67
2021/12/15 14:03:41;;;;;;;9.85;6.75;;;11.70;91.30;;;;;;4958813;28;20039;-67
2021/12/15 14:06:12;;;;;;;9.45;6.95;;;11.70;91.20;;;;;;4954050;28;20205;-67
2021/12/15 14:08:56;;;;;;;9.35;5.90;;;11.70;91.20;;;;;;4961651;28;20038;-67
2021/12/15 14:11:29;;;;;;;8.82;6.03;;;11.70;91.00;;;;;;4977231;28;20038;-67
2021/12/15 14:13:58;;;;;;;7.03;5.60;;;11.80;91.10;;;;;;4951199;28;20408;-66